Time;durP1;ratioP1;P1;durP2;ratioP2;P2;SDS_P1;SDS_P2;PMS_P1;PMS_P2;Temp;Humidity;BMP_temperature;BMP_pressure;BME280_temperature;BME280_humidity;BME280_pressure;Samples;Min_cycle;Max_cycle;Signal;HPM_P1;HPM_P2
2022/03/28 00:00:17;;;;;;;17.75;9.77;;;;;;;10.60;41.49;96244.28;4952488;29;20035;-65
2022/03/28 00:02:44;;;;;;;16.98;10.35;;;;;;;10.50;41.60;96231.06;4952897;29;20023;-65
2022/03/28 00:05:10;;;;;;;14.68;10.57;;;;;;;10.57;41.62;96242.97;4952727;29;20031;-63
2022/03/28 00:07:36;;;;;;;14.32;10.10;;;;;;;10.60;41.41;96255.72;4951443;29;20590;-64
2022/03/28 00:10:02;;;;;;;15.43;10.52;;;;;;;10.41;41.75;96217.53;4952479;28;20028;-64
2022/03/28 00:12:27;;;;;;;17.70;10.90;;;;;;;10.46;41.63;96230.00;4952596;29;20077;-64
2022/03/28 00:14:53;;;;;;;15.65;10.73;;;;;;;10.35;42.10;96216.78;4952776;29;20031;-64
2022/03/28 00:17:18;;;;;;;14.95;10.63;;;;;;;10.29;41.84;96211.78;4952772;29;20492;-64
2022/03/28 00:19:43;;;;;;;14.55;10.30;;;;;;;10.51;41.97;96240.63;4952693;29;20027;-64
2022/03/28 00:22:09;;;;;;;17.17;10.48;;;;;;;10.43;41.72;96230.56;4952252;29;20058;-64
2022/03/28 00:24:34;;;;;;;13.20;10.50;;;;;;;10.39;41.75;96225.81;4952759;28;20027;-64
2022/03/28 00:27:00;;;;;;;19.92;10.70;;;;;;;10.50;41.96;96247.81;4952587;29;20042;-63
2022/03/28 00:29:25;;;;;;;14.73;10.30;;;;;;;10.38;41.79;96223.41;4952401;28;20031;-63
2022/03/28 00:31:51;;;;;;;16.80;10.30;;;;;;;10.44;42.15;96230.28;4951948;29;20027;-63
2022/03/28 00:34:21;;;;;;;16.60;10.90;;;;;;;10.45;42.05;96239.06;4952533;29;20468;-64
2022/03/28 00:36:48;;;;;;;19.83;11.70;;;;;;;10.43;42.27;96235.88;4952470;28;20061;-64
2022/03/28 00:39:16;;;;;;;18.27;11.15;;;;;;;10.35;42.21;96230.06;4952742;28;20540;-64
2022/03/28 00:41:42;;;;;;;14.65;10.70;;;;;;;10.14;42.30;96202.00;4955679;28;20082;-64
2022/03/28 00:44:07;;;;;;;16.95;11.15;;;;;;;10.29;42.58;96227.72;4956046;29;20027;-64
2022/03/28 00:46:34;;;;;;;16.88;10.98;;;;;;;10.28;42.45;96226.13;4955932;28;20500;-64
2022/03/28 00:49:00;;;;;;;20.55;10.57;;;;;;;10.20;42.58;96213.38;4955718;28;20535;-64
2022/03/28 00:51:25;;;;;;;17.42;10.77;;;;;;;10.12;42.57;96199.59;4955848;29;20035;-64
2022/03/28 00:53:51;;;;;;;19.70;10.80;;;;;;;10.11;42.63;96203.31;4954411;28;20122;-64
2022/03/28 00:56:17;;;;;;;16.58;10.85;;;;;;;10.28;42.64;96218.13;4938386;29;20038;-65
2022/03/28 00:58:42;;;;;;;14.27;10.02;;;;;;;10.04;42.71;96181.56;4955763;29;20030;-64
2022/03/28 01:01:09;;;;;;;14.98;10.63;;;;;;;10.23;42.58;96213.59;4955260;29;20027;-64
2022/03/28 01:03:36;;;;;;;18.85;11.20;;;;;;;10.06;42.90;96189.25;4955631;28;20074;-64
2022/03/28 01:06:01;;;;;;;19.23;10.70;;;;;;;10.01;43.27;96176.78;4955633;28;20082;-64
2022/03/28 01:08:27;;;;;;;12.65;9.85;;;;;;;10.09;43.25;96191.38;4955476;28;20023;-64
2022/03/28 01:10:55;;;;;;;12.43;10.48;;;;;;;9.99;43.10;96178.16;4953793;29;20066;-64
2022/03/28 01:13:22;;;;;;;16.23;10.68;;;;;;;10.10;42.72;96196.41;4955432;29;20019;-64
2022/03/28 01:15:47;;;;;;;23.70;10.65;;;;;;;10.09;43.41;96194.03;4955372;28;20393;-64
2022/03/28 01:18:14;;;;;;;21.05;10.63;;;;;;;10.01;43.20;96179.44;4955487;29;20050;-64
2022/03/28 01:20:40;;;;;;;20.02;11.13;;;;;;;10.15;43.17;96201.69;4954731;28;20086;-65
2022/03/28 01:23:08;;;;;;;16.38;10.32;;;;;;;10.16;43.58;96199.84;4954071;29;20046;-64
2022/03/28 01:25:34;;;;;;;13.90;10.82;;;;;;;10.16;43.87;96203.28;4955295;29;20508;-64
2022/03/28 01:28:00;;;;;;;13.32;10.48;;;;;;;10.12;43.84;96202.25;4955092;29;20498;-64
2022/03/28 01:30:31;;;;;;;16.50;10.50;;;;;;;10.13;43.70;96205.69;4954566;29;20030;-64
2022/03/28 01:32:58;;;;;;;16.67;10.63;;;;;;;9.52;43.64;96119.13;4955224;29;20055;-64
2022/03/28 01:35:26;;;;;;;18.35;11.50;;;;;;;10.10;43.66;96190.31;4955129;28;20089;-64
2022/03/28 01:37:51;;;;;;;17.77;11.07;;;;;;;10.02;43.92;96189.00;4954990;28;20023;-64
2022/03/28 01:40:17;;;;;;;17.75;11.25;;;;;;;9.85;43.48;96154.81;4954574;28;20139;-64
2022/03/28 01:42:42;;;;;;;16.48;11.13;;;;;;;9.93;43.79;96163.28;4953717;29;20038;-64
2022/03/28 01:45:08;;;;;;;15.90;11.00;;;;;;;9.94;43.82;96160.38;4953650;28;20028;-64
2022/03/28 01:47:33;;;;;;;12.30;10.65;;;;;;;9.99;44.31;96172.84;4954727;29;20110;-64
2022/03/28 01:49:59;;;;;;;16.58;10.98;;;;;;;10.04;43.91;96173.59;4953617;29;20035;-64
2022/03/28 01:52:24;;;;;;;21.83;10.75;;;;;;;10.09;44.34;96180.75;4953355;28;20693;-64
2022/03/28 01:54:50;;;;;;;14.48;10.98;;;;;;;10.07;43.87;96180.22;4954659;28;20034;-64
2022/03/28 01:57:15;;;;;;;13.85;10.75;;;;;;;9.99;44.57;96167.50;4954608;29;20037;-64
2022/03/28 01:59:40;;;;;;;17.65;11.07;;;;;;;9.93;44.33;96161.44;4954644;28;20027;-63
2022/03/28 02:02:06;;;;;;;12.73;11.43;;;;;;;9.96;44.49;96170.72;4954021;29;20495;-64
2022/03/28 02:04:32;;;;;;;14.55;11.20;;;;;;;10.00;44.31;96180.53;4954409;29;20059;-63
2022/03/28 02:06:58;;;;;;;15.82;11.10;;;;;;;9.91;44.59;96158.25;4954542;28;20038;-63
2022/03/28 02:09:23;;;;;;;17.20;11.35;;;;;;;9.93;44.61;96163.28;4952827;28;20032;-63
2022/03/28 02:11:49;;;;;;;17.65;11.95;;;;;;;9.94;44.73;96173.66;4954008;28;20436;-64
2022/03/28 02:14:14;;;;;;;13.63;11.48;;;;;;;9.62;44.58;96120.91;4954097;29;20046;-63
2022/03/28 02:16:39;;;;;;;13.20;10.85;;;;;;;9.58;45.08;96117.25;4954262;28;20027;-63
2022/03/28 02:19:05;;;;;;;14.93;11.20;;;;;;;9.83;44.65;96153.50;4953878;28;20034;-64
2022/03/28 02:21:30;;;;;;;19.08;11.82;;;;;;;9.79;44.95;96142.63;4953778;29;20019;-64
2022/03/28 02:23:55;;;;;;;14.73;11.13;;;;;;;9.86;45.02;96160.91;4954148;29;20098;-64
2022/03/28 02:26:21;;;;;;;17.60;10.50;;;;;;;9.57;45.75;96150.16;4953963;29;20062;-64
2022/03/28 02:28:47;;;;;;;18.95;11.43;;;;;;;9.47;46.36;96152.84;4953948;29;20037;-63
2022/03/28 02:31:13;;;;;;;15.57;11.48;;;;;;;9.46;46.47;96161.91;4952997;29;20046;-64
2022/03/28 02:33:38;;;;;;;18.25;10.95;;;;;;;9.68;45.72;96159.69;4952829;28;20477;-64
2022/03/28 02:36:05;;;;;;;15.93;11.45;;;;;;;9.65;45.88;96165.53;4953742;28;20102;-63
2022/03/28 02:38:30;;;;;;;16.50;11.52;;;;;;;9.53;45.77;96155.25;4953742;28;20046;-63
2022/03/28 02:40:56;;;;;;;15.55;11.45;;;;;;;9.21;46.77;96144.97;4952274;29;20035;-63
2022/03/28 02:43:23;;;;;;;13.32;11.23;;;;;;;9.43;46.21;96146.53;4953818;29;20385;-64
2022/03/28 02:45:48;;;;;;;19.45;11.68;;;;;;;9.51;46.21;96170.63;4953787;29;20046;-63
2022/03/28 02:48:14;;;;;;;13.10;10.55;;;;;;;9.19;46.25;96120.56;4953456;29;20468;-63
2022/03/28 02:50:39;;;;;;;15.50;11.25;;;;;;;9.44;46.50;96169.34;4953296;28;20034;-64
2022/03/28 02:53:04;;;;;;;13.13;11.18;;;;;;;9.44;45.98;96164.03;4953671;28;20042;-64
2022/03/28 02:55:30;;;;;;;15.15;11.13;;;;;;;9.29;46.64;96164.88;4953699;29;20389;-64
2022/03/28 02:57:55;;;;;;;17.10;11.45;;;;;;;9.22;46.82;96151.91;4953440;29;20670;-63
2022/03/28 03:00:21;;;;;;;14.00;10.10;;;;;;;9.13;46.40;96134.13;4953260;29;20106;-64
2022/03/28 03:02:46;;;;;;;13.25;10.93;;;;;;;9.23;46.33;96160.66;4953232;28;20117;-64
2022/03/28 03:05:12;;;;;;;14.18;11.25;;;;;;;9.06;46.90;96159.09;4953559;29;20110;-63
2022/03/28 03:07:38;;;;;;;15.13;10.82;;;;;;;9.03;46.40;96140.25;4953510;29;20031;-63
2022/03/28 03:10:04;;;;;;;16.50;11.32;;;;;;;9.13;46.05;96140.25;4953141;29;20031;-63
2022/03/28 03:12:30;;;;;;;16.90;11.75;;;;;;;9.18;45.60;96155.34;4953314;28;20022;-63
2022/03/28 03:14:56;;;;;;;15.63;12.05;;;;;;;8.80;47.11;96138.97;4953193;29;20118;-63
2022/03/28 03:17:22;;;;;;;18.52;11.52;;;;;;;8.75;47.73;96138.97;4953215;28;20027;-63
2022/03/28 03:19:47;;;;;;;13.55;11.23;;;;;;;9.03;46.83;96150.88;4953321;29;20034;-64
2022/03/28 03:22:16;;;;;;;17.58;11.82;;;;;;;9.08;46.64;96143.69;4952938;29;20035;-63
2022/03/28 03:24:43;;;;;;;15.50;11.85;;;;;;;9.02;46.37;96141.34;4953345;29;20106;-63
2022/03/28 03:27:09;;;;;;;20.02;12.90;;;;;;;9.09;46.21;96157.75;4953393;29;20034;-63
2022/03/28 03:29:35;;;;;;;13.40;11.85;;;;;;;9.06;46.30;96155.66;4953151;29;20027;-64
2022/03/28 03:32:00;;;;;;;14.38;11.63;;;;;;;9.04;46.37;96152.47;4952800;28;20050;-63
2022/03/28 03:34:27;;;;;;;17.40;12.20;;;;;;;8.89;46.15;96128.63;4953012;29;20035;-64
2022/03/28 03:36:53;;;;;;;23.17;12.27;;;;;;;9.02;46.19;96165.22;4953078;28;20033;-64
2022/03/28 03:39:19;;;;;;;17.00;12.07;;;;;;;8.83;46.41;96135.78;4953040;29;20023;-64
2022/03/28 03:41:44;;;;;;;18.65;12.40;;;;;;;8.67;46.61;96115.66;4952787;29;20035;-63
2022/03/28 03:44:09;;;;;;;16.95;12.80;;;;;;;8.83;46.67;96139.22;4953169;29;20031;-63
2022/03/28 03:46:35;;;;;;;19.65;12.98;;;;;;;8.82;46.73;96140.31;4952932;29;20077;-64
2022/03/28 03:49:00;;;;;;;22.17;13.02;;;;;;;8.89;46.92;96155.16;4952756;29;20031;-63
2022/03/28 03:51:26;;;;;;;19.02;12.73;;;;;;;8.80;46.99;96137.13;4952608;29;20400;-64
2022/03/28 03:53:51;;;;;;;21.27;12.48;;;;;;;8.85;46.41;96144.25;4952843;29;20024;-63
2022/03/28 03:56:17;;;;;;;16.17;12.93;;;;;;;8.90;46.49;96154.06;4952829;29;20472;-64
2022/03/28 03:58:42;;;;;;;22.42;12.77;;;;;;;8.79;46.44;96132.88;4952723;29;20050;-64
2022/03/28 04:01:08;;;;;;;15.43;12.52;;;;;;;8.84;46.45;96151.44;4952324;29;20028;-64
2022/03/28 04:03:34;;;;;;;19.35;12.57;;;;;;;8.83;46.84;96149.06;4952825;28;20027;-64
2022/03/28 04:06:00;;;;;;;20.90;12.95;;;;;;;8.73;47.17;96133.94;4953068;29;20074;-64
2022/03/28 04:08:26;;;;;;;21.42;13.38;;;;;;;8.72;46.76;96123.59;4952772;29;20047;-64
2022/03/28 04:10:51;;;;;;;21.90;14.15;;;;;;;8.61;47.06;96120.19;4952443;29;20038;-64
2022/03/28 04:13:18;;;;;;;20.30;13.13;;;;;;;8.77;47.16;96148.25;4952533;28;20079;-64
2022/03/28 04:15:44;;;;;;;19.88;12.50;;;;;;;8.76;46.97;96162.59;4955222;28;20461;-63
2022/03/28 04:18:09;;;;;;;23.63;13.32;;;;;;;8.73;47.28;96139.25;4956486;29;20038;-63
2022/03/28 04:20:35;;;;;;;18.25;13.05;;;;;;;8.71;47.23;96146.69;4955957;29;20393;-63
2022/03/28 04:23:01;;;;;;;21.65;13.10;;;;;;;8.62;47.11;96135.03;4939087;29;20473;-63
2022/03/28 04:25:26;;;;;;;18.55;13.23;;;;;;;8.32;48.58;96131.28;4955205;29;20050;-64
2022/03/28 04:27:52;;;;;;;15.68;12.57;;;;;;;8.49;48.24;96140.84;4956166;29;20113;-63
2022/03/28 04:30:17;;;;;;;16.00;12.57;;;;;;;8.48;48.55;96136.63;4955777;29;20059;-64
2022/03/28 04:32:43;;;;;;;16.52;13.35;;;;;;;8.53;48.20;96132.09;4956239;29;20032;-64
2022/03/28 04:35:10;;;;;;;18.20;13.25;;;;;;;8.68;48.76;96149.84;4955943;29;20038;-66
2022/03/28 04:37:37;;;;;;;18.77;13.10;;;;;;;8.61;48.35;96138.75;4956118;29;20102;-65
2022/03/28 04:40:05;;;;;;;20.95;12.52;;;;;;;8.58;48.44;96133.97;4955701;29;20035;-63
2022/03/28 04:42:31;;;;;;;24.83;13.90;;;;;;;8.47;48.37;96117.25;4955843;29;20440;-63
2022/03/28 04:44:56;;;;;;;31.50;14.15;;;;;;;8.59;48.37;96141.63;4938686;29;20031;-64
2022/03/28 04:47:22;;;;;;;26.38;14.30;;;;;;;8.54;48.28;96131.03;4955784;29;20388;-64
2022/03/28 04:49:47;;;;;;;27.65;13.88;;;;;;;8.58;48.47;96128.66;4938376;29;20078;-66
2022/03/28 04:52:13;;;;;;;23.95;14.20;;;;;;;8.64;48.70;96151.44;4954716;28;20027;-62
2022/03/28 04:54:38;;;;;;;21.48;13.07;;;;;;;8.50;49.42;96142.47;4955882;28;20035;-65
2022/03/28 04:57:04;;;;;;;24.38;14.35;;;;;;;8.42;49.19;96141.13;4956018;29;20116;-60
2022/03/28 04:59:30;;;;;;;27.00;14.48;;;;;;;8.54;49.39;96139.00;4955657;29;20034;-61
2022/03/28 05:01:56;;;;;;;42.53;15.23;;;;;;;8.59;49.38;96131.03;4955430;28;20066;-62
2022/03/28 05:04:21;;;;;;;38.90;15.13;;;;;;;8.64;48.95;96134.75;4955679;29;20062;-62
2022/03/28 05:06:46;;;;;;;23.70;13.43;;;;;;;8.60;49.05;96123.91;4954936;28;20035;-62
2022/03/28 05:09:12;;;;;;;28.67;14.90;;;;;;;8.62;48.58;96124.41;4955412;29;20078;-63
2022/03/28 05:11:37;;;;;;;22.48;13.68;;;;;;;8.77;48.51;96142.16;4953999;29;20102;-63
2022/03/28 05:14:03;;;;;;;28.52;14.32;;;;;;;8.71;49.11;96124.69;4955445;29;20034;-63
2022/03/28 05:16:29;;;;;;;26.75;14.30;;;;;;;8.87;48.34;96139.50;4938272;29;20062;-64
2022/03/28 05:18:54;;;;;;;21.02;14.00;;;;;;;8.73;48.41;96107.41;4955373;29;20110;-64
2022/03/28 05:21:20;;;;;;;26.20;13.98;;;;;;;8.83;48.53;96117.22;4953980;28;20035;-64
2022/03/28 05:23:46;;;;;;;21.02;13.93;;;;;;;8.77;48.59;96099.72;4953963;28;20062;-63
2022/03/28 05:26:11;;;;;;;49.60;15.68;;;;;;;9.03;48.44;96130.44;4955044;28;20079;-63
2022/03/28 05:28:37;;;;;;;55.33;17.42;;;;;;;9.13;47.90;96134.13;4955142;29;20031;-63
2022/03/28 05:31:02;;;;;;;35.58;16.05;;;;;;;9.15;48.27;96116.06;4954368;29;20055;-64
2022/03/28 05:33:28;;;;;;;33.38;14.25;;;;;;;9.28;47.72;96136.75;4953795;29;20050;-64
2022/03/28 05:35:54;;;;;;;25.08;13.57;;;;;;;9.34;47.80;96125.03;4954257;28;20069;-63
2022/03/28 05:38:20;;;;;;;25.73;13.93;;;;;;;9.32;47.66;96114.69;4955193;29;20023;-63
2022/03/28 05:40:45;;;;;;;23.83;13.63;;;;;;;9.47;47.47;96124.47;4953519;29;20059;-63
2022/03/28 05:43:11;;;;;;;21.10;13.40;;;;;;;9.53;47.67;96127.88;4954795;29;20106;-63
2022/03/28 05:45:36;;;;;;;31.52;14.15;;;;;;;9.55;47.18;96115.13;4954873;29;20050;-63
2022/03/28 05:48:03;;;;;;;24.67;14.07;;;;;;;9.70;47.35;96120.34;4954637;29;20074;-64
2022/03/28 05:50:31;;;;;;;27.23;14.00;;;;;;;9.80;46.76;96119.50;4954435;29;20024;-64
2022/03/28 05:52:57;;;;;;;22.42;14.18;;;;;;;9.85;46.50;96111.50;4937826;28;20064;-63
2022/03/28 05:55:22;;;;;;;18.08;13.45;;;;;;;10.05;46.54;96123.88;4935435;29;20126;-63
2022/03/28 05:57:47;;;;;;;32.75;13.43;;;;;;;10.12;46.52;96135.78;4935244;29;20126;-63
2022/03/28 06:00:14;;;;;;;20.85;13.25;;;;;;;10.23;45.94;96130.38;4918018;29;20027;-62
2022/03/28 06:02:41;;;;;;;20.10;13.82;;;;;;;10.31;45.93;96122.66;4935498;29;20023;-64
2022/03/28 06:05:07;;;;;;;15.65;12.30;;;;;;;10.48;45.86;96129.44;4935463;29;20110;-64
2022/03/28 06:07:33;;;;;;;22.58;12.80;;;;;;;10.54;45.21;96130.97;4946900;28;20106;-64
2022/03/28 06:09:58;;;;;;;21.10;12.13;;;;;;;10.58;45.34;96108.06;4953128;28;20106;-65
2022/03/28 06:12:25;;;;;;;17.80;12.73;;;;;;;10.83;45.07;96128.34;4950834;28;20027;-64
2022/03/28 06:14:50;;;;;;;14.13;12.00;;;;;;;10.94;44.72;96127.94;4950802;29;20046;-64
2022/03/28 06:17:23;;;;;;;17.38;12.13;;;;;;;10.47;44.37;96117.22;4951623;28;20476;-64
2022/03/28 06:19:49;;;;;;;15.27;11.90;;;;;;;10.96;44.58;96129.56;4951502;28;20023;-64
2022/03/28 06:22:15;;;;;;;20.50;12.43;;;;;;;11.28;44.00;96135.06;4941093;28;20083;-63
2022/03/28 06:24:41;;;;;;;17.17;11.27;;;;;;;11.42;43.47;96116.53;4953012;29;20027;-63
2022/03/28 06:27:07;;;;;;;16.77;11.52;;;;;;;11.57;43.64;96131.53;4969182;28;20038;-64
2022/03/28 06:29:32;;;;;;;17.55;12.20;;;;;;;11.72;42.87;96136.69;4953893;29;20516;-64
2022/03/28 06:31:58;;;;;;;15.38;11.23;;;;;;;11.82;42.82;96131.22;4953591;28;20027;-63
2022/03/28 06:34:23;;;;;;;17.00;11.07;;;;;;;11.97;42.13;96124.88;4953585;28;20476;-63
2022/03/28 06:36:48;;;;;;;20.55;11.65;;;;;;;12.25;42.48;96133.03;4965444;28;20038;-64
2022/03/28 06:39:15;;;;;;;13.75;11.52;;;;;;;12.15;41.96;96096.63;4953276;29;20039;-64
2022/03/28 06:41:40;;;;;;;13.60;11.23;;;;;;;12.48;41.64;96137.47;4953107;29;20488;-64
2022/03/28 06:44:08;;;;;;;14.27;11.75;;;;;;;12.42;41.52;96131.41;4953615;29;20030;-67
2022/03/28 06:46:34;;;;;;;15.20;11.68;;;;;;;12.55;41.52;96110.44;4953374;28;20023;-66
2022/03/28 06:49:00;;;;;;;13.77;10.57;;;;;;;12.90;41.36;96127.72;4953671;29;20027;-67
2022/03/28 06:51:25;;;;;;;12.13;10.75;;;;;;;12.97;41.10;96107.53;4952660;28;20023;-66
2022/03/28 06:53:51;;;;;;;15.52;11.95;;;;;;;13.24;40.14;96119.34;4952977;28;20622;-65
2022/03/28 06:56:17;;;;;;;18.52;11.90;;;;;;;13.51;40.14;96132.75;4953537;29;20026;-64
2022/03/28 06:58:42;;;;;;;14.77;11.90;;;;;;;13.54;39.54;96117.97;4936220;29;20019;-64
2022/03/28 07:01:09;;;;;;;12.15;10.90;;;;;;;13.61;39.32;96113.00;4953249;29;20031;-66
2022/03/28 07:03:34;;;;;;;13.05;10.60;;;;;;;13.61;39.26;96088.16;4953477;29;20078;-64
2022/03/28 07:06:01;;;;;;;16.50;10.93;;;;;;;13.95;38.73;96128.59;4952284;28;20428;-63
2022/03/28 07:08:26;;;;;;;16.55;11.02;;;;;;;14.08;38.55;96121.66;4952284;28;20472;-64
2022/03/28 07:10:52;;;;;;;20.65;11.40;;;;;;;14.26;38.73;96114.53;4952831;29;20038;-64
2022/03/28 07:13:18;;;;;;;18.38;10.80;;;;;;;14.26;38.42;96109.19;4953408;29;20383;-65
2022/03/28 07:15:43;;;;;;;14.88;10.40;;;;;;;14.40;38.19;96117.97;4953518;29;20024;-63
2022/03/28 07:18:09;;;;;;;12.68;10.05;;;;;;;14.44;37.78;96097.53;4952038;29;20491;-64
2022/03/28 07:20:36;;;;;;;11.90;9.60;;;;;;;14.54;37.64;96115.25;4952855;28;20039;-64
2022/03/28 07:23:03;;;;;;;14.52;11.07;;;;;;;14.64;37.66;96106.97;4952379;28;20035;-64
2022/03/28 07:25:28;;;;;;;14.75;10.63;;;;;;;14.88;37.17;96109.31;4936183;29;20532;-64
2022/03/28 07:27:54;;;;;;;11.32;10.23;;;;;;;14.92;36.98;96101.44;4953220;29;20107;-64
2022/03/28 07:30:21;;;;;;;13.82;10.10;;;;;;;15.14;36.86;96109.41;4952762;28;20572;-64
2022/03/28 07:32:47;;;;;;;14.57;10.38;;;;;;;15.23;36.31;96106.78;4953196;29;20221;-64
2022/03/28 07:35:14;;;;;;;18.00;11.18;;;;;;;14.70;36.18;96099.59;4953201;28;20050;-64
2022/03/28 07:37:40;;;;;;;21.52;12.27;;;;;;;14.37;36.57;96102.50;4949354;29;20035;-65
2022/03/28 07:40:08;;;;;;;17.83;11.55;;;;;;;14.62;36.15;96108.38;4951494;28;20031;-65
2022/03/28 07:42:34;;;;;;;16.92;11.15;;;;;;;15.04;35.79;96113.16;4952383;29;20066;-63
2022/03/28 07:45:01;;;;;;;23.05;12.25;;;;;;;14.91;34.72;96078.44;4950728;29;20043;-65
2022/03/28 07:47:27;;;;;;;20.35;12.02;;;;;;;14.27;36.17;96092.03;4952588;29;21759;-65
2022/03/28 07:49:53;;;;;;;23.50;13.02;;;;;;;14.97;35.47;96091.38;4954627;28;20030;-64
2022/03/28 07:52:19;;;;;;;19.45;12.23;;;;;;;14.89;35.19;96081.41;4955538;28;20027;-63
2022/03/28 07:54:45;;;;;;;23.08;13.32;;;;;;;13.99;36.93;96110.06;4956946;29;20038;-63
2022/03/28 07:57:13;;;;;;;25.13;13.65;;;;;;;14.48;36.35;96078.97;4956655;29;20062;-63
2022/03/28 07:59:39;;;;;;;20.17;13.40;;;;;;;15.48;35.23;96106.09;4955683;29;20117;-62
2022/03/28 08:02:05;;;;;;;17.15;13.27;;;;;;;15.83;34.72;96093.56;4956477;29;20069;-63
2022/03/28 08:04:31;;;;;;;19.20;12.45;;;;;;;15.46;35.10;96089.53;4955451;29;20041;-61
2022/03/28 08:06:57;;;;;;;20.88;12.65;;;;;;;15.07;35.50;96076.94;4956777;28;20180;-62
2022/03/28 08:09:22;;;;;;;17.55;13.00;;;;;;;15.09;35.61;96098.84;4955719;28;20480;-63
2022/03/28 08:11:47;;;;;;;17.90;12.02;;;;;;;14.99;35.45;96099.91;4954766;29;20035;-63
2022/03/28 08:14:13;;;;;;;20.65;12.73;;;;;;;15.32;35.00;96095.00;4956653;29;20472;-61
2022/03/28 08:16:38;;;;;;;17.25;12.50;;;;;;;15.25;34.70;96075.09;4956511;28;20472;-63
2022/03/28 08:19:03;;;;;;;18.38;13.70;;;;;;;15.19;34.81;96062.94;4956259;29;20027;-63
2022/03/28 08:21:30;;;;;;;19.70;13.07;;;;;;;15.71;34.00;96084.53;4955962;28;20051;-63
2022/03/28 08:23:55;;;;;;;19.33;12.82;;;;;;;15.59;33.89;96093.19;4955528;28;20118;-63
2022/03/28 08:26:20;;;;;;;22.92;14.30;;;;;;;15.04;33.58;96077.53;4956418;28;20106;-63
2022/03/28 08:28:46;;;;;;;18.02;13.02;;;;;;;14.92;33.27;96056.69;4956051;29;20033;-63
2022/03/28 08:31:12;;;;;;;20.17;13.13;;;;;;;15.40;32.66;96071.97;4955797;29;20038;-64
2022/03/28 08:33:37;;;;;;;18.23;13.15;;;;;;;15.30;32.80;96061.53;4956563;29;20027;-64
2022/03/28 08:36:03;;;;;;;21.42;13.25;;;;;;;16.13;31.60;96060.75;4956334;29;20110;-65
2022/03/28 08:38:29;;;;;;;18.50;12.82;;;;;;;16.10;31.34;96076.38;4955241;28;20027;-65
2022/03/28 08:40:54;;;;;;;23.40;13.73;;;;;;;16.73;30.74;96087.53;4955735;29;20081;-65
2022/03/28 08:43:22;;;;;;;17.17;13.65;;;;;;;16.26;30.93;96070.53;4938467;29;20055;-66
2022/03/28 08:45:49;;;;;;;21.00;13.40;;;;;;;16.83;30.71;96081.81;4955961;29;20087;-64
2022/03/28 08:48:15;;;;;;;18.45;13.25;;;;;;;17.47;29.62;96072.09;4955790;29;20118;-64
2022/03/28 08:50:46;;;;;;;16.38;12.95;;;;;;;16.95;30.08;96072.31;4955408;29;20455;-63
2022/03/28 08:53:13;;;;;;;29.40;15.43;;;;;;;16.55;30.42;96064.50;4954794;28;20031;-62
2022/03/28 08:55:43;;;;;;;20.85;13.60;;;;;;;16.88;29.71;96070.91;4955769;28;20125;-63
2022/03/28 08:58:11;;;;;;;20.27;14.30;;;;;;;16.73;29.48;96062.56;4955585;29;20035;-65
2022/03/28 09:00:37;;;;;;;24.98;14.65;;;;;;;17.28;29.46;96075.19;4937513;29;20055;-64
2022/03/28 09:03:02;;;;;;;24.05;14.57;;;;;;;17.27;29.54;96074.41;4954316;29;20130;-64
2022/03/28 09:05:36;;;;;;;20.85;13.98;;;;;;;17.79;28.76;96070.66;4955632;28;20072;-64
2022/03/28 09:08:04;;;;;;;20.60;15.43;;;;;;;17.57;28.97;96067.13;4951534;28;20036;-64
2022/03/28 09:10:32;;;;;;;21.60;14.10;;;;;;;17.94;28.91;96064.69;4936148;29;20110;-66
2022/03/28 09:12:59;;;;;;;18.65;13.85;;;;;;;18.04;27.89;96061.59;4936609;29;20031;-66
2022/03/28 09:15:25;;;;;;;27.75;13.77;;;;;;;18.34;27.31;96054.22;4936390;29;20036;-66
2022/03/28 09:17:57;;;;;;;19.55;13.82;;;;;;;17.53;27.88;96052.75;4936258;29;20051;-63
2022/03/28 09:20:23;;;;;;;;;;;;;;;17.17;28.45;96052.47;4936329;29;20028;-66
2022/03/28 09:22:49;;;;;;;18.83;13.77;;;;;;;17.59;28.03;96053.34;4936008;28;19914;-66
2022/03/28 09:25:18;;;;;;;17.33;13.98;;;;;;;18.01;27.59;96038.03;4955031;29;20038;-67
2022/03/28 09:27:44;;;;;;;20.38;14.32;;;;;;;17.97;27.24;96007.53;4955107;28;20106;-67
2022/03/28 09:30:20;;;;;;;17.95;12.98;;;;;;;18.66;26.53;96043.75;4954531;28;20051;-67
2022/03/28 09:32:47;;;;;;;17.08;13.95;;;;;;;18.54;26.71;96036.44;4937968;29;20027;-65
2022/03/28 09:35:23;;;;;;;21.48;14.77;;;;;;;18.06;26.79;96042.41;4954894;29;20100;-66
2022/03/28 09:38:06;;;;;;;16.85;13.00;;;;;;;18.59;26.27;96028.16;4954741;28;20078;-66
2022/03/28 09:40:42;;;;;;;16.45;13.70;;;;;;;18.45;26.30;96035.75;4918135;29;20460;-65
2022/03/28 09:43:17;;;;;;;19.67;14.60;;;;;;;18.17;26.61;96005.91;4934445;29;20134;-63
2022/03/28 09:45:48;;;;;;;19.02;13.70;;;;;;;18.65;28.27;96031.41;4935865;29;20031;-66
2022/03/28 09:48:15;;;;;;;20.92;13.80;;;;;;;18.86;26.77;96001.72;4935887;29;20083;-65
2022/03/28 09:51:00;;;;;;;23.13;14.77;;;;;;;19.30;26.14;96020.84;4935400;29;20039;-66
2022/03/28 09:53:31;;;;;;;22.23;14.07;;;;;;;19.11;26.14;96016.78;4938573;28;20035;-65
2022/03/28 09:55:59;;;;;;;;;;;;;;;19.70;25.56;96015.50;4955292;29;20059;-66
2022/03/28 09:58:59;;;;;;;18.88;14.20;;;;;;;19.76;25.34;95999.88;4954623;29;19918;-68
2022/03/28 10:02:05;;;;;;;20.90;15.15;;;;;;;20.42;25.05;95999.38;4934634;28;20126;-68
2022/03/28 10:04:31;;;;;;;19.50;14.00;;;;;;;20.49;24.36;95989.59;4953343;29;20069;-69
2022/03/28 10:06:56;;;;;;;19.65;13.88;;;;;;;20.82;24.17;95968.75;4952317;28;20118;-67
2022/03/28 10:09:22;;;;;;;17.40;14.23;;;;;;;21.09;23.37;95989.53;4944404;28;20204;-67
2022/03/28 10:11:47;;;;;;;17.90;13.85;;;;;;;21.09;23.71;95980.59;4934371;29;20028;-68
2022/03/28 10:14:13;;;;;;;18.58;13.45;;;;;;;21.02;23.77;95946.06;4935029;29;20028;-68
2022/03/28 10:16:39;;;;;;;16.27;13.98;;;;;;;21.36;23.24;95970.84;4952551;29;20496;-67
2022/03/28 10:19:05;;;;;;;16.52;13.68;;;;;;;20.39;23.94;95967.66;4953087;28;20027;-66
2022/03/28 10:21:36;;;;;;;19.10;14.60;;;;;;;19.95;24.05;95973.81;4953900;28;20035;-65
2022/03/28 10:24:06;;;;;;;19.58;13.45;;;;;;;20.41;23.44;95966.16;4936016;29;20031;-64
2022/03/28 10:26:38;;;;;;;16.17;13.98;;;;;;;20.76;23.14;95952.00;4952373;28;20023;-67
2022/03/28 10:29:09;;;;;;;19.35;13.32;;;;;;;20.97;22.75;95919.28;4953989;29;20090;-67
2022/03/28 10:31:54;;;;;;;18.63;14.35;;;;;;;21.25;22.41;95930.75;4952765;29;20643;-68
2022/03/28 10:34:56;;;;;;;16.75;13.80;;;;;;;21.37;22.57;95950.75;4952712;28;20075;-67
2022/03/28 10:37:38;;;;;;;18.50;13.18;;;;;;;21.02;22.48;95944.13;4952717;29;20480;-65
2022/03/28 10:40:15;;;;;;;;;;;;;;;21.08;22.38;95941.94;4950566;28;20038;-63
2022/03/28 10:42:47;;;;;;;17.17;14.15;;;;;;;21.83;22.08;95940.09;4951539;29;19930;-74
2022/03/28 10:45:19;;;;;;;21.45;13.80;;;;;;;21.76;21.63;95929.94;4953136;28;20027;-74
2022/03/28 10:47:52;;;;;;;17.42;13.32;;;;;;;21.96;21.70;95926.06;4953071;28;20460;-72
2022/03/28 10:50:21;;;;;;;18.23;14.27;;;;;;;22.11;21.76;95927.16;4949104;28;20504;-72
2022/03/28 10:53:19;;;;;;;17.02;12.88;;;;;;;21.53;22.39;95917.06;4953094;28;20392;-74
2022/03/28 10:55:49;;;;;;;15.55;13.30;;;;;;;21.95;21.91;95907.44;4950989;28;20143;-72
2022/03/28 10:58:25;;;;;;;17.52;13.57;;;;;;;22.14;21.74;95907.44;4951455;28;20059;-73
2022/03/28 11:01:05;;;;;;;20.90;13.45;;;;;;;21.37;22.18;95908.22;4952513;28;20024;-73
2022/03/28 11:03:36;;;;;;;17.08;13.70;;;;;;;21.49;21.99;95893.78;4952658;29;20050;-74
2022/03/28 11:06:02;;;;;;;15.73;13.73;;;;;;;20.75;22.83;95907.97;4951508;28;20027;-72
2022/03/28 11:08:32;;;;;;;16.55;14.13;;;;;;;20.99;22.51;95898.88;4950808;28;20305;-76
2022/03/28 11:11:21;;;;;;;23.00;14.93;;;;;;;20.81;22.61;95886.88;4951575;28;20039;-70
2022/03/28 11:13:59;;;;;;;21.08;14.82;;;;;;;21.31;21.97;95860.16;4952540;28;20075;-68
2022/03/28 11:16:50;;;;;;;18.02;14.38;;;;;;;22.05;21.79;95871.63;4952375;28;20492;-68
2022/03/28 11:19:31;;;;;;;19.87;14.40;;;;;;;20.97;23.31;95857.88;4951385;28;20035;-66
2022/03/28 11:22:10;;;;;;;19.50;14.80;;;;;;;21.48;22.37;95862.44;4950885;28;20038;-66